sensor_id;sensor_type;location;lat;lon;timestamp;pressure;altitude;pressure_sealevel;temperature;humidity
3464;BME280;3551;41.578;24.706;2023-04-24T00:01:26;91116.13;;;6.12;100.00
3464;BME280;3551;41.578;24.706;2023-04-24T00:03:54;91117.41;;;6.29;100.00
3464;BME280;3551;41.578;24.706;2023-04-24T00:06:21;91111.31;;;6.25;100.00
3464;BME280;3551;41.578;24.706;2023-04-24T00:08:48;91118.50;;;6.28;100.00
3464;BME280;3551;41.578;24.706;2023-04-24T00:11:15;91112.16;;;6.36;100.00
3464;BME280;3551;41.578;24.706;2023-04-24T00:13:42;91118.25;;;6.36;100.00
3464;BME280;3551;41.578;24.706;2023-04-24T00:16:10;91104.06;;;6.21;100.00
3464;BME280;3551;41.578;24.706;2023-04-24T00:18:37;91104.75;;;6.15;100.00
3464;BME280;3551;41.578;24.706;2023-04-24T00:21:04;91116.31;;;6.33;100.00
3464;BME280;3551;41.578;24.706;2023-04-24T00:23:31;91104.13;;;6.29;100.00
3464;BME280;3551;41.578;24.706;2023-04-24T00:25:57;91110.81;;;6.12;100.00
3464;BME280;3551;41.578;24.706;2023-04-24T00:28:24;91107.81;;;5.80;100.00
3464;BME280;3551;41.578;24.706;2023-04-24T00:30:51;91109.81;;;5.90;100.00
3464;BME280;3551;41.578;24.706;2023-04-24T00:33:19;91096.75;;;6.11;100.00
3464;BME280;3551;41.578;24.706;2023-04-24T00:35:45;91101.72;;;6.16;100.00
3464;BME280;3551;41.578;24.706;2023-04-24T00:38:12;91088.88;;;6.18;100.00
3464;BME280;3551;41.578;24.706;2023-04-24T00:40:39;91096.53;;;6.27;100.00
3464;BME280;3551;41.578;24.706;2023-04-24T00:43:05;91100.28;;;6.22;100.00
3464;BME280;3551;41.578;24.706;2023-04-24T00:45:32;91097.66;;;5.86;100.00
3464;BME280;3551;41.578;24.706;2023-04-24T00:47:58;91096.97;;;5.96;100.00
3464;BME280;3551;41.578;24.706;2023-04-24T00:50:28;91084.78;;;5.88;100.00
3464;BME280;3551;41.578;24.706;2023-04-24T00:52:54;91091.91;;;6.20;100.00
3464;BME280;3551;41.578;24.706;2023-04-24T00:55:21;91094.41;;;6.03;100.00
3464;BME280;3551;41.578;24.706;2023-04-24T00:57:48;91089.31;;;5.87;100.00
3464;BME280;3551;41.578;24.706;2023-04-24T01:00:16;91094.09;;;6.11;100.00
3464;BME280;3551;41.578;24.706;2023-04-24T01:02:44;91091.88;;;6.17;100.00
3464;BME280;3551;41.578;24.706;2023-04-24T01:05:11;91089.56;;;6.12;100.00
3464;BME280;3551;41.578;24.706;2023-04-24T01:07:39;91089.53;;;6.08;100.00
3464;BME280;3551;41.578;24.706;2023-04-24T01:10:09;91088.63;;;5.94;100.00
3464;BME280;3551;41.578;24.706;2023-04-24T01:12:36;91090.22;;;6.02;100.00
3464;BME280;3551;41.578;24.706;2023-04-24T01:15:03;91085.38;;;6.11;100.00
3464;BME280;3551;41.578;24.706;2023-04-24T01:17:30;91087.41;;;6.28;100.00
3464;BME280;3551;41.578;24.706;2023-04-24T01:19:57;91075.88;;;6.06;100.00
3464;BME280;3551;41.578;24.706;2023-04-24T01:22:26;91076.06;;;5.87;100.00
3464;BME280;3551;41.578;24.706;2023-04-24T01:24:53;91072.78;;;6.01;100.00
3464;BME280;3551;41.578;24.706;2023-04-24T01:27:20;91074.56;;;5.90;100.00
3464;BME280;3551;41.578;24.706;2023-04-24T01:29:46;91070.19;;;5.71;100.00
3464;BME280;3551;41.578;24.706;2023-04-24T01:32:14;91075.38;;;5.60;100.00
3464;BME280;3551;41.578;24.706;2023-04-24T01:34:41;91078.75;;;5.91;100.00
3464;BME280;3551;41.578;24.706;2023-04-24T01:37:08;91071.44;;;5.84;100.00
3464;BME280;3551;41.578;24.706;2023-04-24T01:39:36;91075.88;;;5.73;100.00
3464;BME280;3551;41.578;24.706;2023-04-24T01:42:04;91071.69;;;5.68;100.00
3464;BME280;3551;41.578;24.706;2023-04-24T01:44:31;91069.47;;;5.74;100.00
3464;BME280;3551;41.578;24.706;2023-04-24T01:46:57;91068.34;;;5.79;100.00
3464;BME280;3551;41.578;24.706;2023-04-24T01:49:24;91069.94;;;5.83;100.00
3464;BME280;3551;41.578;24.706;2023-04-24T01:51:51;91066.47;;;5.79;100.00
3464;BME280;3551;41.578;24.706;2023-04-24T01:54:17;91073.13;;;5.62;100.00
3464;BME280;3551;41.578;24.706;2023-04-24T01:56:46;91069.75;;;5.65;100.00
3464;BME280;3551;41.578;24.706;2023-04-24T01:59:12;91060.97;;;5.61;100.00
3464;BME280;3551;41.578;24.706;2023-04-24T02:01:40;91062.28;;;5.78;100.00
3464;BME280;3551;41.578;24.706;2023-04-24T02:04:07;91065.50;;;5.94;100.00
3464;BME280;3551;41.578;24.706;2023-04-24T02:06:33;91063.56;;;5.88;100.00
3464;BME280;3551;41.578;24.706;2023-04-24T02:09:00;91062.56;;;5.69;100.00
3464;BME280;3551;41.578;24.706;2023-04-24T02:11:28;91058.50;;;5.79;100.00
3464;BME280;3551;41.578;24.706;2023-04-24T02:13:56;91051.38;;;5.50;100.00
3464;BME280;3551;41.578;24.706;2023-04-24T02:16:22;91053.84;;;5.32;100.00
3464;BME280;3551;41.578;24.706;2023-04-24T02:18:49;91055.25;;;5.23;100.00
3464;BME280;3551;41.578;24.706;2023-04-24T02:21:16;91049.44;;;5.10;100.00
3464;BME280;3551;41.578;24.706;2023-04-24T02:23:42;91053.34;;;5.23;100.00
3464;BME280;3551;41.578;24.706;2023-04-24T02:26:09;91051.19;;;5.32;100.00
3464;BME280;3551;41.578;24.706;2023-04-24T02:28:36;91046.22;;;5.27;100.00
3464;BME280;3551;41.578;24.706;2023-04-24T02:31:04;91042.97;;;5.07;100.00
3464;BME280;3551;41.578;24.706;2023-04-24T02:33:31;91050.13;;;5.40;100.00
3464;BME280;3551;41.578;24.706;2023-04-24T02:35:57;91044.94;;;5.47;100.00
3464;BME280;3551;41.578;24.706;2023-04-24T02:38:24;91046.34;;;5.38;100.00
3464;BME280;3551;41.578;24.706;2023-04-24T02:40:51;91040.38;;;5.15;100.00
3464;BME280;3551;41.578;24.706;2023-04-24T02:43:17;91040.63;;;5.36;100.00
3464;BME280;3551;41.578;24.706;2023-04-24T02:45:44;91037.09;;;5.25;100.00
3464;BME280;3551;41.578;24.706;2023-04-24T02:48:12;91036.44;;;5.35;100.00
3464;BME280;3551;41.578;24.706;2023-04-24T02:50:39;91033.06;;;5.38;100.00
3464;BME280;3551;41.578;24.706;2023-04-24T02:53:05;91030.38;;;5.31;100.00
3464;BME280;3551;41.578;24.706;2023-04-24T02:55:32;91027.09;;;5.44;100.00
3464;BME280;3551;41.578;24.706;2023-04-24T02:57:59;91027.19;;;5.51;100.00
3464;BME280;3551;41.578;24.706;2023-04-24T03:00:26;91030.69;;;5.62;100.00
3464;BME280;3551;41.578;24.706;2023-04-24T03:02:52;91034.31;;;5.47;100.00
3464;BME280;3551;41.578;24.706;2023-04-24T03:05:20;91027.47;;;5.46;100.00
3464;BME280;3551;41.578;24.706;2023-04-24T03:07:47;91033.22;;;5.52;100.00
3464;BME280;3551;41.578;24.706;2023-04-24T03:10:14;91021.03;;;5.44;100.00
3464;BME280;3551;41.578;24.706;2023-04-24T03:12:40;91021.69;;;5.34;100.00
3464;BME280;3551;41.578;24.706;2023-04-24T03:15:08;91026.38;;;5.14;100.00
3464;BME280;3551;41.578;24.706;2023-04-24T03:17:34;91031.38;;;5.19;100.00
3464;BME280;3551;41.578;24.706;2023-04-24T03:20:02;91027.81;;;5.41;100.00
3464;BME280;3551;41.578;24.706;2023-04-24T03:22:32;91017.50;;;5.33;100.00
3464;BME280;3551;41.578;24.706;2023-04-24T03:24:59;91016.06;;;5.39;100.00
3464;BME280;3551;41.578;24.706;2023-04-24T03:27:25;91018.41;;;5.14;100.00
3464;BME280;3551;41.578;24.706;2023-04-24T03:29:52;91014.38;;;5.24;100.00
3464;BME280;3551;41.578;24.706;2023-04-24T03:32:20;91012.03;;;5.19;100.00
3464;BME280;3551;41.578;24.706;2023-04-24T03:34:47;91021.44;;;5.13;100.00
3464;BME280;3551;41.578;24.706;2023-04-24T03:37:14;91014.94;;;5.06;100.00
3464;BME280;3551;41.578;24.706;2023-04-24T03:39:42;91018.47;;;4.88;100.00
3464;BME280;3551;41.578;24.706;2023-04-24T03:42:08;91023.34;;;4.82;100.00
3464;BME280;3551;41.578;24.706;2023-04-24T03:44:35;91025.31;;;4.89;100.00
3464;BME280;3551;41.578;24.706;2023-04-24T03:47:01;91020.91;;;5.00;100.00
3464;BME280;3551;41.578;24.706;2023-04-24T03:49:28;91022.50;;;5.04;100.00
3464;BME280;3551;41.578;24.706;2023-04-24T03:51:55;91028.78;;;4.93;100.00
3464;BME280;3551;41.578;24.706;2023-04-24T03:54:21;91026.09;;;5.23;100.00
3464;BME280;3551;41.578;24.706;2023-04-24T03:56:49;91019.03;;;5.37;100.00
3464;BME280;3551;41.578;24.706;2023-04-24T03:59:16;91027.34;;;5.32;100.00
3464;BME280;3551;41.578;24.706;2023-04-24T04:01:42;91026.56;;;5.28;100.00
3464;BME280;3551;41.578;24.706;2023-04-24T04:04:10;91017.50;;;5.33;100.00
3464;BME280;3551;41.578;24.706;2023-04-24T04:06:37;91022.38;;;5.27;100.00
3464;BME280;3551;41.578;24.706;2023-04-24T04:09:03;91026.78;;;5.53;100.00
3464;BME280;3551;41.578;24.706;2023-04-24T04:11:30;91020.03;;;5.59;100.00
3464;BME280;3551;41.578;24.706;2023-04-24T04:13:58;91014.56;;;5.82;100.00
3464;BME280;3551;41.578;24.706;2023-04-24T04:16:25;91018.56;;;6.02;100.00
3464;BME280;3551;41.578;24.706;2023-04-24T04:18:52;91024.34;;;6.14;100.00
3464;BME280;3551;41.578;24.706;2023-04-24T04:21:18;91024.34;;;6.14;100.00
3464;BME280;3551;41.578;24.706;2023-04-24T04:23:45;91035.38;;;6.16;100.00
3464;BME280;3551;41.578;24.706;2023-04-24T04:26:12;91027.78;;;6.15;100.00
3464;BME280;3551;41.578;24.706;2023-04-24T04:28:38;91028.72;;;6.40;100.00
3464;BME280;3551;41.578;24.706;2023-04-24T04:31:07;91035.41;;;6.78;100.00
3464;BME280;3551;41.578;24.706;2023-04-24T04:33:34;91033.72;;;7.21;100.00
3464;BME280;3551;41.578;24.706;2023-04-24T04:36:03;91039.56;;;7.58;100.00
3464;BME280;3551;41.578;24.706;2023-04-24T04:38:30;91038.81;;;7.61;99.02
3464;BME280;3551;41.578;24.706;2023-04-24T04:40:56;91038.09;;;7.75;100.00
3464;BME280;3551;41.578;24.706;2023-04-24T04:43:23;91029.44;;;8.52;96.52
3464;BME280;3551;41.578;24.706;2023-04-24T04:45:50;91038.84;;;9.20;92.07
3464;BME280;3551;41.578;24.706;2023-04-24T04:48:19;91031.44;;;9.63;89.59
3464;BME280;3551;41.578;24.706;2023-04-24T04:50:45;91034.31;;;9.97;85.93
3464;BME280;3551;41.578;24.706;2023-04-24T04:53:12;91025.97;;;9.91;83.66
3464;BME280;3551;41.578;24.706;2023-04-24T04:55:38;91029.06;;;10.45;83.38
3464;BME280;3551;41.578;24.706;2023-04-24T04:58:05;91026.84;;;10.81;82.91
3464;BME280;3551;41.578;24.706;2023-04-24T05:00:32;91030.88;;;10.55;83.44
3464;BME280;3551;41.578;24.706;2023-04-24T05:03:01;91028.06;;;10.25;85.58
3464;BME280;3551;41.578;24.706;2023-04-24T05:05:29;91022.13;;;10.51;83.51
3464;BME280;3551;41.578;24.706;2023-04-24T05:07:56;91028.56;;;10.02;83.62
3464;BME280;3551;41.578;24.706;2023-04-24T05:10:23;91024.25;;;10.26;85.50
3464;BME280;3551;41.578;24.706;2023-04-24T05:12:49;91032.00;;;10.61;83.87
3464;BME280;3551;41.578;24.706;2023-04-24T05:15:16;91028.19;;;11.03;81.75
3464;BME280;3551;41.578;24.706;2023-04-24T05:17:43;91024.91;;;11.56;79.07
3464;BME280;3551;41.578;24.706;2023-04-24T05:20:10;91029.34;;;11.02;78.02
3464;BME280;3551;41.578;24.706;2023-04-24T05:22:38;91021.81;;;10.86;79.90
3464;BME280;3551;41.578;24.706;2023-04-24T05:25:05;91017.84;;;10.64;82.20
3464;BME280;3551;41.578;24.706;2023-04-24T05:27:31;91027.44;;;10.58;84.33
3464;BME280;3551;41.578;24.706;2023-04-24T05:29:58;91024.69;;;10.17;86.11
3464;BME280;3551;41.578;24.706;2023-04-24T05:32:25;91017.75;;;9.54;89.35
3464;BME280;3551;41.578;24.706;2023-04-24T05:34:52;91020.09;;;9.45;91.33
3464;BME280;3551;41.578;24.706;2023-04-24T05:37:18;91020.47;;;9.43;92.14
3464;BME280;3551;41.578;24.706;2023-04-24T05:39:47;91011.25;;;9.55;91.74
3464;BME280;3551;41.578;24.706;2023-04-24T05:42:13;91017.00;;;9.46;92.96
3464;BME280;3551;41.578;24.706;2023-04-24T05:44:40;91019.31;;;9.48;92.89
3464;BME280;3551;41.578;24.706;2023-04-24T05:47:08;91013.38;;;8.94;96.34
3464;BME280;3551;41.578;24.706;2023-04-24T05:49:37;91023.72;;;8.75;100.00
3464;BME280;3551;41.578;24.706;2023-04-24T05:52:08;91022.97;;;8.60;100.00
3464;BME280;3551;41.578;24.706;2023-04-24T05:54:35;91021.00;;;8.85;100.00
3464;BME280;3551;41.578;24.706;2023-04-24T05:57:11;91024.03;;;8.94;99.95
3464;BME280;3551;41.578;24.706;2023-04-24T05:59:38;91025.97;;;8.83;100.00
3464;BME280;3551;41.578;24.706;2023-04-24T06:02:07;91033.59;;;8.92;100.00
3464;BME280;3551;41.578;24.706;2023-04-24T06:04:33;91029.00;;;8.96;100.00
3464;BME280;3551;41.578;24.706;2023-04-24T06:07:00;91030.47;;;9.11;99.85
3464;BME280;3551;41.578;24.706;2023-04-24T06:09:27;91030.88;;;9.10;99.77
3464;BME280;3551;41.578;24.706;2023-04-24T06:11:53;91029.34;;;9.12;99.50
3464;BME280;3551;41.578;24.706;2023-04-24T06:14:23;91025.94;;;8.94;100.00
3464;BME280;3551;41.578;24.706;2023-04-24T06:16:49;91023.28;;;9.01;100.00
3464;BME280;3551;41.578;24.706;2023-04-24T06:19:16;91026.66;;;9.19;100.00
3464;BME280;3551;41.578;24.706;2023-04-24T06:21:43;91021.72;;;9.14;100.00
3464;BME280;3551;41.578;24.706;2023-04-24T06:24:09;91029.34;;;9.05;100.00
3464;BME280;3551;41.578;24.706;2023-04-24T06:26:37;91028.22;;;9.06;100.00
3464;BME280;3551;41.578;24.706;2023-04-24T06:29:03;91019.44;;;9.02;100.00
3464;BME280;3551;41.578;24.706;2023-04-24T06:31:32;91026.66;;;9.16;100.00
3464;BME280;3551;41.578;24.706;2023-04-24T06:34:02;91027.03;;;9.21;100.00
3464;BME280;3551;41.578;24.706;2023-04-24T06:36:28;91019.03;;;9.25;100.00
3464;BME280;3551;41.578;24.706;2023-04-24T06:38:55;91033.03;;;9.43;100.00
3464;BME280;3551;41.578;24.706;2023-04-24T06:41:22;91023.53;;;9.45;100.00
3464;BME280;3551;41.578;24.706;2023-04-24T06:43:49;91029.66;;;9.32;100.00
3464;BME280;3551;41.578;24.706;2023-04-24T06:46:15;91029.19;;;9.54;100.00
3464;BME280;3551;41.578;24.706;2023-04-24T06:48:43;91024.53;;;9.69;100.00
3464;BME280;3551;41.578;24.706;2023-04-24T06:51:10;91027.59;;;9.71;100.00
3464;BME280;3551;41.578;24.706;2023-04-24T06:53:37;91029.06;;;9.79;99.55
3464;BME280;3551;41.578;24.706;2023-04-24T06:56:03;91025.72;;;9.65;98.47
3464;BME280;3551;41.578;24.706;2023-04-24T06:58:30;91036.38;;;9.65;98.97
3464;BME280;3551;41.578;24.706;2023-04-24T07:00:57;91026.47;;;9.65;99.35
3464;BME280;3551;41.578;24.706;2023-04-24T07:03:24;91033.28;;;9.77;99.15
3464;BME280;3551;41.578;24.706;2023-04-24T07:05:52;91033.19;;;9.98;98.57
3464;BME280;3551;41.578;24.706;2023-04-24T07:08:19;91034.28;;;10.04;98.36
3464;BME280;3551;41.578;24.706;2023-04-24T07:10:47;91033.84;;;10.16;98.10
3464;BME280;3551;41.578;24.706;2023-04-24T07:13:14;91038.72;;;10.28;98.12
3464;BME280;3551;41.578;24.706;2023-04-24T07:15:40;91039.53;;;10.22;98.47
3464;BME280;3551;41.578;24.706;2023-04-24T07:18:09;91039.84;;;10.31;99.10
3464;BME280;3551;41.578;24.706;2023-04-24T07:20:38;91039.81;;;10.38;98.06
3464;BME280;3551;41.578;24.706;2023-04-24T07:23:06;91029.16;;;10.31;98.31
3464;BME280;3551;41.578;24.706;2023-04-24T07:25:32;91028.06;;;10.25;98.18
3464;BME280;3551;41.578;24.706;2023-04-24T07:27:59;91025.75;;;10.27;97.79
3464;BME280;3551;41.578;24.706;2023-04-24T07:30:26;91033.69;;;10.41;97.04
3464;BME280;3551;41.578;24.706;2023-04-24T07:32:54;91025.22;;;10.46;96.63
3464;BME280;3551;41.578;24.706;2023-04-24T07:35:20;91033.22;;;10.49;97.08
3464;BME280;3551;41.578;24.706;2023-04-24T07:37:47;91032.09;;;10.47;96.94
3464;BME280;3551;41.578;24.706;2023-04-24T07:40:15;91020.31;;;10.41;97.01
3464;BME280;3551;41.578;24.706;2023-04-24T07:42:42;91023.00;;;10.37;98.19
3464;BME280;3551;41.578;24.706;2023-04-24T07:45:09;91021.84;;;10.42;97.75
3464;BME280;3551;41.578;24.706;2023-04-24T07:47:36;91028.66;;;10.46;97.11
3464;BME280;3551;41.578;24.706;2023-04-24T07:50:03;91027.41;;;10.61;96.22
3464;BME280;3551;41.578;24.706;2023-04-24T07:52:30;91025.53;;;10.58;96.62
3464;BME280;3551;41.578;24.706;2023-04-24T07:54:57;91031.94;;;10.68;95.60
3464;BME280;3551;41.578;24.706;2023-04-24T07:57:27;91030.75;;;10.72;95.37
3464;BME280;3551;41.578;24.706;2023-04-24T07:59:53;91030.75;;;10.72;95.96
3464;BME280;3551;41.578;24.706;2023-04-24T08:02:20;91031.34;;;10.91;95.60
3464;BME280;3551;41.578;24.706;2023-04-24T08:04:51;91031.66;;;11.00;95.27
3464;BME280;3551;41.578;24.706;2023-04-24T08:07:18;91035.78;;;11.08;94.23
3464;BME280;3551;41.578;24.706;2023-04-24T08:09:44;91033.25;;;10.90;94.13
3464;BME280;3551;41.578;24.706;2023-04-24T08:12:11;91033.00;;;10.74;95.43
3464;BME280;3551;41.578;24.706;2023-04-24T08:14:39;91037.81;;;10.93;94.25
3464;BME280;3551;41.578;24.706;2023-04-24T08:17:05;91032.38;;;11.04;94.19
3464;BME280;3551;41.578;24.706;2023-04-24T08:19:32;91036.53;;;11.08;94.53
3464;BME280;3551;41.578;24.706;2023-04-24T08:21:59;91042.22;;;11.14;93.46
3464;BME280;3551;41.578;24.706;2023-04-24T08:24:26;91037.84;;;11.27;92.38
3464;BME280;3551;41.578;24.706;2023-04-24T08:26:53;91032.03;;;11.36;91.96
3464;BME280;3551;41.578;24.706;2023-04-24T08:29:21;91028.53;;;11.42;91.61
3464;BME280;3551;41.578;24.706;2023-04-24T08:31:49;91020.81;;;11.48;90.70
3464;BME280;3551;41.578;24.706;2023-04-24T08:34:16;91023.00;;;11.22;93.00
3464;BME280;3551;41.578;24.706;2023-04-24T08:36:43;91019.09;;;11.30;92.33
3464;BME280;3551;41.578;24.706;2023-04-24T08:39:09;91020.63;;;11.32;93.85
3464;BME280;3551;41.578;24.706;2023-04-24T08:41:36;91016.47;;;11.61;92.49
3464;BME280;3551;41.578;24.706;2023-04-24T08:44:03;91019.69;;;12.09;90.08
3464;BME280;3551;41.578;24.706;2023-04-24T08:46:30;91013.34;;;12.50;88.48
3464;BME280;3551;41.578;24.706;2023-04-24T08:48:59;91011.97;;;12.65;81.33
3464;BME280;3551;41.578;24.706;2023-04-24T08:51:26;91014.41;;;13.02;82.05
3464;BME280;3551;41.578;24.706;2023-04-24T08:53:53;91016.25;;;13.28;81.65
3464;BME280;3551;41.578;24.706;2023-04-24T08:56:20;91003.47;;;13.56;79.79
3464;BME280;3551;41.578;24.706;2023-04-24T08:58:48;91005.75;;;13.37;79.21
3464;BME280;3551;41.578;24.706;2023-04-24T09:01:15;91000.56;;;13.27;77.79
3464;BME280;3551;41.578;24.706;2023-04-24T09:03:42;90995.28;;;13.43;77.83
3464;BME280;3551;41.578;24.706;2023-04-24T09:06:11;90993.53;;;13.13;77.04
3464;BME280;3551;41.578;24.706;2023-04-24T09:08:37;90993.91;;;13.35;78.03
3464;BME280;3551;41.578;24.706;2023-04-24T09:11:05;90995.84;;;13.74;78.98
3464;BME280;3551;41.578;24.706;2023-04-24T09:13:32;90996.38;;;13.85;76.91
3464;BME280;3551;41.578;24.706;2023-04-24T09:15:59;90991.31;;;13.87;76.94
3464;BME280;3551;41.578;24.706;2023-04-24T09:18:26;90995.19;;;13.86;76.97
3464;BME280;3551;41.578;24.706;2023-04-24T09:20:59;90991.13;;;13.97;76.69
3464;BME280;3551;41.578;24.706;2023-04-24T09:23:29;90986.50;;;13.98;76.64
3464;BME280;3551;41.578;24.706;2023-04-24T09:25:56;90978.72;;;13.84;76.08
3464;BME280;3551;41.578;24.706;2023-04-24T09:28:27;90985.03;;;13.93;74.59
3464;BME280;3551;41.578;24.706;2023-04-24T09:31:02;90972.88;;;13.89;72.60
3464;BME280;3551;41.578;24.706;2023-04-24T09:33:29;90968.25;;;13.70;73.25
3464;BME280;3551;41.578;24.706;2023-04-24T09:35:56;90971.66;;;13.74;73.84
3464;BME280;3551;41.578;24.706;2023-04-24T09:38:31;90966.88;;;13.81;75.00
3464;BME280;3551;41.578;24.706;2023-04-24T09:40:59;90965.88;;;13.56;75.06
3464;BME280;3551;41.578;24.706;2023-04-24T09:43:26;90964.41;;;13.71;74.79
3464;BME280;3551;41.578;24.706;2023-04-24T09:45:56;90965.31;;;13.64;73.90
3464;BME280;3551;41.578;24.706;2023-04-24T09:48:29;90955.91;;;13.36;75.32
3464;BME280;3551;41.578;24.706;2023-04-24T09:50:57;90951.25;;;13.37;76.18
3464;BME280;3551;41.578;24.706;2023-04-24T09:53:24;90954.34;;;13.55;76.50
3464;BME280;3551;41.578;24.706;2023-04-24T09:55:52;90947.53;;;14.06;77.58
3464;BME280;3551;41.578;24.706;2023-04-24T09:58:24;90949.19;;;14.68;70.48
3464;BME280;3551;41.578;24.706;2023-04-24T10:00:53;90940.84;;;14.62;68.63
3464;BME280;3551;41.578;24.706;2023-04-24T10:03:19;90937.16;;;14.40;69.74
3464;BME280;3551;41.578;24.706;2023-04-24T10:05:47;90930.75;;;14.34;69.22
3464;BME280;3551;41.578;24.706;2023-04-24T10:08:13;90923.28;;;14.42;70.16
3464;BME280;3551;41.578;24.706;2023-04-24T10:10:41;90920.03;;;14.95;70.52
3464;BME280;3551;41.578;24.706;2023-04-24T10:13:10;90914.84;;;15.17;68.36
3464;BME280;3551;41.578;24.706;2023-04-24T10:15:37;90912.66;;;15.12;67.49
3464;BME280;3551;41.578;24.706;2023-04-24T10:18:04;90904.72;;;14.92;66.55
3464;BME280;3551;41.578;24.706;2023-04-24T10:20:31;90910.78;;;14.96;69.02
3464;BME280;3551;41.578;24.706;2023-04-24T10:23:00;90907.94;;;14.87;67.80
3464;BME280;3551;41.578;24.706;2023-04-24T10:25:27;90905.66;;;14.86;69.20
3464;BME280;3551;41.578;24.706;2023-04-24T10:27:55;90902.38;;;14.94;68.47
3464;BME280;3551;41.578;24.706;2023-04-24T10:30:26;90906.16;;;15.26;67.83
3464;BME280;3551;41.578;24.706;2023-04-24T10:32:53;90907.78;;;15.36;67.19
3464;BME280;3551;41.578;24.706;2023-04-24T10:35:19;90901.53;;;15.39;67.69
3464;BME280;3551;41.578;24.706;2023-04-24T10:37:48;90909.63;;;15.39;67.36
3464;BME280;3551;41.578;24.706;2023-04-24T10:40:16;90911.44;;;15.58;66.56
3464;BME280;3551;41.578;24.706;2023-04-24T10:42:43;90903.19;;;15.90;63.44
3464;BME280;3551;41.578;24.706;2023-04-24T10:45:16;90904.03;;;16.12;65.16
3464;BME280;3551;41.578;24.706;2023-04-24T10:47:51;90903.69;;;16.48;65.90
3464;BME280;3551;41.578;24.706;2023-04-24T10:50:18;90912.44;;;16.52;62.36
3464;BME280;3551;41.578;24.706;2023-04-24T10:52:45;90911.16;;;16.57;60.43
3464;BME280;3551;41.578;24.706;2023-04-24T10:55:12;90897.22;;;16.46;62.47
3464;BME280;3551;41.578;24.706;2023-04-24T10:57:39;90901.34;;;16.25;60.19
3464;BME280;3551;41.578;24.706;2023-04-24T11:00:10;90906.31;;;16.14;59.53
3464;BME280;3551;41.578;24.706;2023-04-24T11:02:39;90896.06;;;15.84;62.66
3464;BME280;3551;41.578;24.706;2023-04-24T11:05:15;90902.06;;;15.62;63.78
3464;BME280;3551;41.578;24.706;2023-04-24T11:10:27;90896.13;;;15.67;64.06
3464;BME280;3551;41.578;24.706;2023-04-24T11:12:54;90880.19;;;15.86;60.64
3464;BME280;3551;41.578;24.706;2023-04-24T11:15:20;90886.34;;;16.11;62.65
3464;BME280;3551;41.578;24.706;2023-04-24T11:17:47;90879.44;;;16.10;61.66
3464;BME280;3551;41.578;24.706;2023-04-24T11:20:17;90873.81;;;16.17;61.90
3464;BME280;3551;41.578;24.706;2023-04-24T11:22:44;90868.31;;;16.21;61.73
3464;BME280;3551;41.578;24.706;2023-04-24T11:25:10;90881.72;;;15.87;63.76
3464;BME280;3551;41.578;24.706;2023-04-24T11:27:40;90876.31;;;15.87;62.91
3464;BME280;3551;41.578;24.706;2023-04-24T11:30:07;90877.06;;;15.87;62.78
3464;BME280;3551;41.578;24.706;2023-04-24T11:32:35;90867.47;;;15.86;61.58
3464;BME280;3551;41.578;24.706;2023-04-24T11:35:02;90871.88;;;15.67;62.56
3464;BME280;3551;41.578;24.706;2023-04-24T11:37:34;90864.75;;;15.73;62.80
3464;BME280;3551;41.578;24.706;2023-04-24T11:40:02;90867.25;;;15.81;62.41
3464;BME280;3551;41.578;24.706;2023-04-24T11:42:33;90865.44;;;15.90;63.80
3464;BME280;3551;41.578;24.706;2023-04-24T11:44:59;90862.81;;;16.12;60.71
3464;BME280;3551;41.578;24.706;2023-04-24T11:47:27;90872.22;;;16.07;61.84
3464;BME280;3551;41.578;24.706;2023-04-24T11:49:54;90857.53;;;15.70;62.79
3464;BME280;3551;41.578;24.706;2023-04-24T11:52:21;90858.94;;;15.50;63.62
3464;BME280;3551;41.578;24.706;2023-04-24T11:54:49;90855.41;;;15.37;63.95
3464;BME280;3551;41.578;24.706;2023-04-24T11:57:16;90855.41;;;15.37;64.15
3464;BME280;3551;41.578;24.706;2023-04-24T11:59:43;90848.56;;;15.48;62.62
3464;BME280;3551;41.578;24.706;2023-04-24T12:02:19;90853.63;;;15.59;62.85
3464;BME280;3551;41.578;24.706;2023-04-24T12:04:47;90856.66;;;15.48;62.11
3464;BME280;3551;41.578;24.706;2023-04-24T12:07:14;90847.50;;;15.58;60.49
3464;BME280;3551;41.578;24.706;2023-04-24T12:09:41;90830.56;;;15.83;60.98
3464;BME280;3551;41.578;24.706;2023-04-24T12:12:10;90827.53;;;15.94;58.15
3464;BME280;3551;41.578;24.706;2023-04-24T12:14:43;90828.19;;;16.10;61.32
3464;BME280;3551;41.578;24.706;2023-04-24T12:17:10;90829.16;;;16.16;59.82
3464;BME280;3551;41.578;24.706;2023-04-24T12:19:37;90830.44;;;16.24;59.89
3464;BME280;3551;41.578;24.706;2023-04-24T12:22:04;90820.06;;;16.36;60.11
3464;BME280;3551;41.578;24.706;2023-04-24T12:24:31;90818.59;;;16.09;60.39
3464;BME280;3551;41.578;24.706;2023-04-24T12:26:58;90821.19;;;16.13;56.86
3464;BME280;3551;41.578;24.706;2023-04-24T12:29:28;90822.56;;;16.17;57.49
3464;BME280;3551;41.578;24.706;2023-04-24T12:31:55;90828.53;;;15.87;60.07
3464;BME280;3551;41.578;24.706;2023-04-24T12:34:23;90823.25;;;15.58;61.69
3464;BME280;3551;41.578;24.706;2023-04-24T12:36:50;90837.50;;;15.30;63.40
3464;BME280;3551;41.578;24.706;2023-04-24T12:39:20;90840.06;;;15.50;59.38
3464;BME280;3551;41.578;24.706;2023-04-24T12:41:55;90827.72;;;15.36;57.35
3464;BME280;3551;41.578;24.706;2023-04-24T12:44:31;90829.28;;;15.21;61.31
3464;BME280;3551;41.578;24.706;2023-04-24T12:46:59;90829.38;;;15.59;58.78
3464;BME280;3551;41.578;24.706;2023-04-24T12:49:26;90834.75;;;15.46;59.72
3464;BME280;3551;41.578;24.706;2023-04-24T12:51:53;90848.63;;;15.45;60.24
3464;BME280;3551;41.578;24.706;2023-04-24T12:54:20;90837.44;;;15.46;60.29
3464;BME280;3551;41.578;24.706;2023-04-24T12:56:47;90840.50;;;15.19;57.14
3464;BME280;3551;41.578;24.706;2023-04-24T12:59:14;90830.22;;;15.02;58.38
3464;BME280;3551;41.578;24.706;2023-04-24T13:01:42;90843.31;;;14.58;59.82
3464;BME280;3551;41.578;24.706;2023-04-24T13:04:08;90841.47;;;14.55;61.63
3464;BME280;3551;41.578;24.706;2023-04-24T13:06:35;90841.31;;;14.46;62.95
3464;BME280;3551;41.578;24.706;2023-04-24T13:09:02;90830.63;;;14.59;64.52
3464;BME280;3551;41.578;24.706;2023-04-24T13:11:29;90829.78;;;14.62;64.03
3464;BME280;3551;41.578;24.706;2023-04-24T13:13:56;90822.88;;;14.61;64.45
3464;BME280;3551;41.578;24.706;2023-04-24T13:16:23;90821.69;;;14.62;64.84